2021/10/22 09:50 EDVE 220950Z 25022G32KT 9999 SCT031 BKN039 10/04 Q1008